Bear Creek, Minnesota
Current Conditions -  °F | °C
As of 2:13 AM on Sunday 26 Oct 2014 (Local Time) from KBJI Reporting Station
Clear Clear  
Wind Chill: 32°   Ceiling: Unl
Heat Index: 32°   Visibility: 10mi
Dew Point: 26°   Wind: 3mph
Humidity: 76%   Direction: 240°WSW
Pressure: 29.99"   Gusts: NA
Location:  47.4609°N, 95.2384°W
Report Text: KBJI 260713Z AUTO 24003KT 10SM CLR 00/M04 A2999 RMK AO2 T00011036
Loading
Personal Weather Stations






























Interactive Weather Map
Tropical Storm Tracking
New forecast layout! Learn more

10-Day Weather Forecast

Advertisements
Track Severe Weather on mobile